sensor_id;sensor_type;location;lat;lon;timestamp;P1;durP1;ratioP1;P2;durP2;ratioP2
19111;SDS011;9688;51.906;8.376;2023-02-15T00:02:10;16.40;;;9.50;;
19111;SDS011;9688;51.906;8.376;2023-02-15T00:04:56;15.60;;;9.03;;
19111;SDS011;9688;51.906;8.376;2023-02-15T00:07:42;16.87;;;8.57;;
19111;SDS011;9688;51.906;8.376;2023-02-15T00:10:29;15.50;;;9.17;;
19111;SDS011;9688;51.906;8.376;2023-02-15T00:13:15;18.00;;;8.73;;
19111;SDS011;9688;51.906;8.376;2023-02-15T00:16:02;15.43;;;8.73;;
19111;SDS011;9688;51.906;8.376;2023-02-15T00:18:48;17.53;;;9.07;;
19111;SDS011;9688;51.906;8.376;2023-02-15T00:21:37;16.90;;;10.50;;
19111;SDS011;9688;51.906;8.376;2023-02-15T00:24:23;16.23;;;8.77;;
19111;SDS011;9688;51.906;8.376;2023-02-15T00:27:10;14.40;;;8.67;;
19111;SDS011;9688;51.906;8.376;2023-02-15T00:29:56;13.97;;;8.67;;
19111;SDS011;9688;51.906;8.376;2023-02-15T00:32:42;15.67;;;8.60;;
19111;SDS011;9688;51.906;8.376;2023-02-15T00:35:28;13.60;;;8.23;;
19111;SDS011;9688;51.906;8.376;2023-02-15T00:38:13;15.73;;;8.90;;
19111;SDS011;9688;51.906;8.376;2023-02-15T00:41:00;14.17;;;8.47;;
19111;SDS011;9688;51.906;8.376;2023-02-15T00:43:49;16.57;;;8.70;;
19111;SDS011;9688;51.906;8.376;2023-02-15T00:46:35;14.77;;;8.37;;
19111;SDS011;9688;51.906;8.376;2023-02-15T00:49:20;15.33;;;8.87;;
19111;SDS011;9688;51.906;8.376;2023-02-15T00:52:06;15.13;;;8.20;;
19111;SDS011;9688;51.906;8.376;2023-02-15T00:54:52;14.67;;;8.20;;
19111;SDS011;9688;51.906;8.376;2023-02-15T00:57:38;14.67;;;8.47;;
19111;SDS011;9688;51.906;8.376;2023-02-15T01:00:25;12.73;;;7.67;;
19111;SDS011;9688;51.906;8.376;2023-02-15T01:03:11;15.33;;;7.93;;
19111;SDS011;9688;51.906;8.376;2023-02-15T01:05:58;14.70;;;8.77;;
19111;SDS011;9688;51.906;8.376;2023-02-15T01:08:45;14.80;;;8.60;;
19111;SDS011;9688;51.906;8.376;2023-02-15T01:11:31;14.37;;;8.57;;
19111;SDS011;9688;51.906;8.376;2023-02-15T01:14:17;14.60;;;8.77;;
19111;SDS011;9688;51.906;8.376;2023-02-15T01:17:05;14.27;;;8.43;;
19111;SDS011;9688;51.906;8.376;2023-02-15T01:19:51;18.47;;;8.70;;
19111;SDS011;9688;51.906;8.376;2023-02-15T01:22:37;16.20;;;8.90;;
19111;SDS011;9688;51.906;8.376;2023-02-15T01:25:23;15.47;;;8.57;;
19111;SDS011;9688;51.906;8.376;2023-02-15T01:28:09;18.37;;;8.47;;
19111;SDS011;9688;51.906;8.376;2023-02-15T01:30:55;15.67;;;8.83;;
19111;SDS011;9688;51.906;8.376;2023-02-15T01:33:42;17.00;;;9.20;;
19111;SDS011;9688;51.906;8.376;2023-02-15T01:36:28;16.70;;;8.60;;
19111;SDS011;9688;51.906;8.376;2023-02-15T01:39:14;12.83;;;7.97;;
19111;SDS011;9688;51.906;8.376;2023-02-15T01:42:00;15.10;;;8.40;;
19111;SDS011;9688;51.906;8.376;2023-02-15T01:44:51;12.33;;;8.20;;
19111;SDS011;9688;51.906;8.376;2023-02-15T01:47:40;13.43;;;7.87;;
19111;SDS011;9688;51.906;8.376;2023-02-15T01:50:31;14.43;;;8.20;;
19111;SDS011;9688;51.906;8.376;2023-02-15T01:53:21;15.57;;;8.33;;
19111;SDS011;9688;51.906;8.376;2023-02-15T01:56:11;10.60;;;7.53;;
19111;SDS011;9688;51.906;8.376;2023-02-15T01:58:59;14.63;;;7.93;;
19111;SDS011;9688;51.906;8.376;2023-02-15T02:01:49;14.17;;;8.00;;
19111;SDS011;9688;51.906;8.376;2023-02-15T02:04:38;13.20;;;7.80;;
19111;SDS011;9688;51.906;8.376;2023-02-15T02:07:30;13.30;;;8.37;;
19111;SDS011;9688;51.906;8.376;2023-02-15T02:10:21;11.87;;;7.60;;
19111;SDS011;9688;51.906;8.376;2023-02-15T02:13:08;14.53;;;7.77;;
19111;SDS011;9688;51.906;8.376;2023-02-15T02:15:54;15.07;;;8.07;;
19111;SDS011;9688;51.906;8.376;2023-02-15T02:18:48;14.00;;;8.93;;
19111;SDS011;9688;51.906;8.376;2023-02-15T02:22:01;13.37;;;7.83;;
19111;SDS011;9688;51.906;8.376;2023-02-15T02:25:22;12.97;;;7.47;;
19111;SDS011;9688;51.906;8.376;2023-02-15T02:28:31;17.10;;;9.30;;
19111;SDS011;9688;51.906;8.376;2023-02-15T02:31:37;16.50;;;8.57;;
19111;SDS011;9688;51.906;8.376;2023-02-15T02:34:35;14.23;;;7.63;;
19111;SDS011;9688;51.906;8.376;2023-02-15T02:37:28;12.00;;;8.03;;
19111;SDS011;9688;51.906;8.376;2023-02-15T02:40:24;14.87;;;8.23;;
19111;SDS011;9688;51.906;8.376;2023-02-15T02:43:17;12.30;;;8.33;;
19111;SDS011;9688;51.906;8.376;2023-02-15T02:46:08;13.93;;;8.10;;
19111;SDS011;9688;51.906;8.376;2023-02-15T02:48:59;15.80;;;8.90;;
19111;SDS011;9688;51.906;8.376;2023-02-15T02:51:57;15.27;;;8.70;;
19111;SDS011;9688;51.906;8.376;2023-02-15T02:54:43;14.93;;;8.53;;
19111;SDS011;9688;51.906;8.376;2023-02-15T02:57:29;17.30;;;8.40;;
19111;SDS011;9688;51.906;8.376;2023-02-15T03:00:18;12.63;;;7.77;;
19111;SDS011;9688;51.906;8.376;2023-02-15T03:03:06;12.80;;;8.50;;
19111;SDS011;9688;51.906;8.376;2023-02-15T03:05:59;15.57;;;9.10;;
19111;SDS011;9688;51.906;8.376;2023-02-15T03:08:50;13.30;;;8.50;;
19111;SDS011;9688;51.906;8.376;2023-02-15T03:11:41;12.00;;;8.03;;
19111;SDS011;9688;51.906;8.376;2023-02-15T03:14:29;16.37;;;8.77;;
19111;SDS011;9688;51.906;8.376;2023-02-15T03:17:15;14.67;;;8.43;;
19111;SDS011;9688;51.906;8.376;2023-02-15T03:20:05;14.57;;;8.90;;
19111;SDS011;9688;51.906;8.376;2023-02-15T03:22:54;16.27;;;8.83;;
19111;SDS011;9688;51.906;8.376;2023-02-15T03:25:47;15.33;;;8.17;;
19111;SDS011;9688;51.906;8.376;2023-02-15T03:28:38;14.20;;;8.37;;
19111;SDS011;9688;51.906;8.376;2023-02-15T03:31:29;16.27;;;8.47;;
19111;SDS011;9688;51.906;8.376;2023-02-15T03:34:20;16.63;;;8.80;;
19111;SDS011;9688;51.906;8.376;2023-02-15T03:37:08;16.17;;;9.00;;
19111;SDS011;9688;51.906;8.376;2023-02-15T03:39:59;14.30;;;8.07;;
19111;SDS011;9688;51.906;8.376;2023-02-15T03:43:12;14.83;;;8.50;;
19111;SDS011;9688;51.906;8.376;2023-02-15T03:46:04;13.40;;;8.60;;
19111;SDS011;9688;51.906;8.376;2023-02-15T03:48:55;14.53;;;8.37;;
19111;SDS011;9688;51.906;8.376;2023-02-15T03:51:46;16.77;;;9.20;;
19111;SDS011;9688;51.906;8.376;2023-02-15T03:54:35;16.43;;;9.23;;
19111;SDS011;9688;51.906;8.376;2023-02-15T03:57:28;15.97;;;8.43;;
19111;SDS011;9688;51.906;8.376;2023-02-15T04:00:34;16.03;;;8.47;;
19111;SDS011;9688;51.906;8.376;2023-02-15T04:03:40;15.07;;;8.77;;
19111;SDS011;9688;51.906;8.376;2023-02-15T04:06:30;17.73;;;8.80;;
19111;SDS011;9688;51.906;8.376;2023-02-15T04:09:16;14.80;;;8.73;;
19111;SDS011;9688;51.906;8.376;2023-02-15T04:12:20;17.00;;;8.47;;
19111;SDS011;9688;51.906;8.376;2023-02-15T04:15:07;15.27;;;8.97;;
19111;SDS011;9688;51.906;8.376;2023-02-15T04:18:24;15.03;;;8.97;;
19111;SDS011;9688;51.906;8.376;2023-02-15T04:21:28;15.47;;;8.23;;
19111;SDS011;9688;51.906;8.376;2023-02-15T04:24:32;19.83;;;9.17;;
19111;SDS011;9688;51.906;8.376;2023-02-15T04:27:36;15.40;;;9.53;;
19111;SDS011;9688;51.906;8.376;2023-02-15T04:30:22;18.57;;;9.00;;
19111;SDS011;9688;51.906;8.376;2023-02-15T04:33:09;16.80;;;9.17;;
19111;SDS011;9688;51.906;8.376;2023-02-15T04:35:57;15.63;;;8.93;;
19111;SDS011;9688;51.906;8.376;2023-02-15T04:38:42;16.77;;;9.27;;
19111;SDS011;9688;51.906;8.376;2023-02-15T04:41:27;16.57;;;9.07;;
19111;SDS011;9688;51.906;8.376;2023-02-15T04:44:13;18.73;;;9.27;;
19111;SDS011;9688;51.906;8.376;2023-02-15T04:46:59;16.07;;;9.67;;
19111;SDS011;9688;51.906;8.376;2023-02-15T04:49:44;15.17;;;9.00;;
19111;SDS011;9688;51.906;8.376;2023-02-15T04:52:31;15.67;;;8.43;;
19111;SDS011;9688;51.906;8.376;2023-02-15T04:55:17;14.17;;;8.50;;
19111;SDS011;9688;51.906;8.376;2023-02-15T04:58:03;16.90;;;9.00;;
19111;SDS011;9688;51.906;8.376;2023-02-15T05:00:49;13.20;;;8.30;;
19111;SDS011;9688;51.906;8.376;2023-02-15T05:03:35;17.97;;;9.47;;
19111;SDS011;9688;51.906;8.376;2023-02-15T05:06:20;16.23;;;9.57;;
19111;SDS011;9688;51.906;8.376;2023-02-15T05:09:11;15.73;;;8.90;;
19111;SDS011;9688;51.906;8.376;2023-02-15T05:11:57;13.27;;;8.37;;
19111;SDS011;9688;51.906;8.376;2023-02-15T05:14:43;16.77;;;9.40;;
19111;SDS011;9688;51.906;8.376;2023-02-15T05:17:29;14.27;;;8.43;;
19111;SDS011;9688;51.906;8.376;2023-02-15T05:20:16;13.00;;;8.10;;
19111;SDS011;9688;51.906;8.376;2023-02-15T05:23:02;19.03;;;9.43;;
19111;SDS011;9688;51.906;8.376;2023-02-15T05:25:50;14.77;;;8.60;;
19111;SDS011;9688;51.906;8.376;2023-02-15T05:28:53;17.57;;;9.13;;
19111;SDS011;9688;51.906;8.376;2023-02-15T05:31:39;16.63;;;9.20;;
19111;SDS011;9688;51.906;8.376;2023-02-15T05:34:24;16.53;;;9.43;;
19111;SDS011;9688;51.906;8.376;2023-02-15T05:37:10;15.37;;;9.13;;
19111;SDS011;9688;51.906;8.376;2023-02-15T05:39:56;18.50;;;9.70;;
19111;SDS011;9688;51.906;8.376;2023-02-15T05:42:43;16.03;;;8.53;;
19111;SDS011;9688;51.906;8.376;2023-02-15T05:45:29;16.30;;;9.30;;
19111;SDS011;9688;51.906;8.376;2023-02-15T05:48:15;19.23;;;10.17;;
19111;SDS011;9688;51.906;8.376;2023-02-15T05:51:03;16.57;;;9.10;;
19111;SDS011;9688;51.906;8.376;2023-02-15T05:53:49;18.93;;;9.57;;
19111;SDS011;9688;51.906;8.376;2023-02-15T05:56:35;21.27;;;10.27;;
19111;SDS011;9688;51.906;8.376;2023-02-15T05:59:22;20.97;;;10.33;;
19111;SDS011;9688;51.906;8.376;2023-02-15T06:02:08;18.63;;;9.07;;
19111;SDS011;9688;51.906;8.376;2023-02-15T06:04:54;16.80;;;8.47;;
19111;SDS011;9688;51.906;8.376;2023-02-15T06:07:42;16.27;;;8.90;;
19111;SDS011;9688;51.906;8.376;2023-02-15T06:10:28;25.23;;;9.77;;
19111;SDS011;9688;51.906;8.376;2023-02-15T06:13:17;17.13;;;9.37;;
19111;SDS011;9688;51.906;8.376;2023-02-15T06:16:04;17.30;;;9.07;;
19111;SDS011;9688;51.906;8.376;2023-02-15T06:18:51;18.13;;;9.13;;
19111;SDS011;9688;51.906;8.376;2023-02-15T06:21:37;16.30;;;8.97;;
19111;SDS011;9688;51.906;8.376;2023-02-15T06:24:22;20.00;;;9.20;;
19111;SDS011;9688;51.906;8.376;2023-02-15T06:27:08;19.00;;;9.53;;
19111;SDS011;9688;51.906;8.376;2023-02-15T06:29:54;20.17;;;9.77;;
19111;SDS011;9688;51.906;8.376;2023-02-15T06:32:41;18.70;;;9.23;;
19111;SDS011;9688;51.906;8.376;2023-02-15T06:35:27;17.70;;;8.80;;
19111;SDS011;9688;51.906;8.376;2023-02-15T06:38:16;17.80;;;9.20;;
19111;SDS011;9688;51.906;8.376;2023-02-15T06:41:02;19.63;;;9.30;;
19111;SDS011;9688;51.906;8.376;2023-02-15T06:43:49;20.93;;;9.83;;
19111;SDS011;9688;51.906;8.376;2023-02-15T06:46:36;18.17;;;9.50;;
19111;SDS011;9688;51.906;8.376;2023-02-15T06:49:24;16.77;;;9.47;;
19111;SDS011;9688;51.906;8.376;2023-02-15T06:52:11;22.00;;;10.80;;
19111;SDS011;9688;51.906;8.376;2023-02-15T06:54:58;18.07;;;10.07;;
19111;SDS011;9688;51.906;8.376;2023-02-15T06:57:46;22.97;;;10.43;;
19111;SDS011;9688;51.906;8.376;2023-02-15T07:00:34;20.33;;;10.50;;
19111;SDS011;9688;51.906;8.376;2023-02-15T07:03:19;17.47;;;9.60;;
19111;SDS011;9688;51.906;8.376;2023-02-15T07:06:07;20.20;;;10.00;;
19111;SDS011;9688;51.906;8.376;2023-02-15T07:08:56;21.20;;;11.17;;
19111;SDS011;9688;51.906;8.376;2023-02-15T07:11:43;19.13;;;9.73;;
19111;SDS011;9688;51.906;8.376;2023-02-15T07:14:46;19.50;;;9.70;;
19111;SDS011;9688;51.906;8.376;2023-02-15T07:17:32;16.87;;;9.20;;
19111;SDS011;9688;51.906;8.376;2023-02-15T07:20:19;19.93;;;9.17;;
19111;SDS011;9688;51.906;8.376;2023-02-15T07:23:08;17.40;;;10.03;;
19111;SDS011;9688;51.906;8.376;2023-02-15T07:25:56;20.27;;;10.30;;
19111;SDS011;9688;51.906;8.376;2023-02-15T07:28:44;14.67;;;8.67;;
19111;SDS011;9688;51.906;8.376;2023-02-15T07:31:30;17.07;;;9.50;;
19111;SDS011;9688;51.906;8.376;2023-02-15T07:34:16;17.27;;;9.43;;
19111;SDS011;9688;51.906;8.376;2023-02-15T07:37:02;16.90;;;9.10;;
19111;SDS011;9688;51.906;8.376;2023-02-15T07:39:52;18.87;;;9.27;;
19111;SDS011;9688;51.906;8.376;2023-02-15T07:42:42;18.17;;;9.57;;
19111;SDS011;9688;51.906;8.376;2023-02-15T07:45:28;16.00;;;8.90;;
19111;SDS011;9688;51.906;8.376;2023-02-15T07:48:15;13.90;;;8.50;;
19111;SDS011;9688;51.906;8.376;2023-02-15T07:51:02;17.40;;;9.13;;
19111;SDS011;9688;51.906;8.376;2023-02-15T07:53:49;14.77;;;8.37;;
19111;SDS011;9688;51.906;8.376;2023-02-15T07:56:37;17.53;;;9.80;;
19111;SDS011;9688;51.906;8.376;2023-02-15T07:59:23;18.07;;;10.20;;
19111;SDS011;9688;51.906;8.376;2023-02-15T08:02:10;17.53;;;8.93;;
19111;SDS011;9688;51.906;8.376;2023-02-15T08:04:56;18.30;;;8.77;;
19111;SDS011;9688;51.906;8.376;2023-02-15T08:07:42;15.87;;;8.50;;
19111;SDS011;9688;51.906;8.376;2023-02-15T08:10:28;16.50;;;9.43;;
19111;SDS011;9688;51.906;8.376;2023-02-15T08:13:29;15.80;;;8.70;;
19111;SDS011;9688;51.906;8.376;2023-02-15T08:16:15;18.60;;;9.53;;
19111;SDS011;9688;51.906;8.376;2023-02-15T08:19:02;16.40;;;9.27;;
19111;SDS011;9688;51.906;8.376;2023-02-15T08:21:49;17.50;;;9.73;;
19111;SDS011;9688;51.906;8.376;2023-02-15T08:24:37;17.10;;;8.87;;
19111;SDS011;9688;51.906;8.376;2023-02-15T08:27:23;16.27;;;9.63;;
19111;SDS011;9688;51.906;8.376;2023-02-15T08:30:14;15.67;;;8.60;;
19111;SDS011;9688;51.906;8.376;2023-02-15T08:33:00;14.63;;;8.90;;
19111;SDS011;9688;51.906;8.376;2023-02-15T08:35:46;17.00;;;9.13;;
19111;SDS011;9688;51.906;8.376;2023-02-15T08:38:33;17.57;;;9.97;;
19111;SDS011;9688;51.906;8.376;2023-02-15T08:41:20;15.30;;;8.77;;
19111;SDS011;9688;51.906;8.376;2023-02-15T08:44:07;14.83;;;8.67;;
19111;SDS011;9688;51.906;8.376;2023-02-15T08:46:56;14.60;;;8.83;;
19111;SDS011;9688;51.906;8.376;2023-02-15T08:49:47;15.87;;;8.30;;
19111;SDS011;9688;51.906;8.376;2023-02-15T08:52:36;18.53;;;8.57;;
19111;SDS011;9688;51.906;8.376;2023-02-15T08:55:21;14.60;;;8.93;;
19111;SDS011;9688;51.906;8.376;2023-02-15T08:58:07;14.80;;;8.40;;
19111;SDS011;9688;51.906;8.376;2023-02-15T09:00:53;16.53;;;8.83;;
19111;SDS011;9688;51.906;8.376;2023-02-15T09:03:42;14.03;;;8.17;;
19111;SDS011;9688;51.906;8.376;2023-02-15T09:06:29;16.73;;;8.97;;
19111;SDS011;9688;51.906;8.376;2023-02-15T09:09:16;16.77;;;9.10;;
19111;SDS011;9688;51.906;8.376;2023-02-15T09:12:02;14.20;;;8.50;;
19111;SDS011;9688;51.906;8.376;2023-02-15T09:14:48;17.33;;;9.07;;
19111;SDS011;9688;51.906;8.376;2023-02-15T09:17:34;18.17;;;9.10;;
19111;SDS011;9688;51.906;8.376;2023-02-15T09:20:22;17.40;;;9.40;;
19111;SDS011;9688;51.906;8.376;2023-02-15T09:23:08;14.67;;;8.60;;
19111;SDS011;9688;51.906;8.376;2023-02-15T09:25:56;16.57;;;8.23;;
19111;SDS011;9688;51.906;8.376;2023-02-15T09:28:43;14.80;;;8.33;;
19111;SDS011;9688;51.906;8.376;2023-02-15T09:31:33;17.43;;;8.43;;
19111;SDS011;9688;51.906;8.376;2023-02-15T09:34:25;15.73;;;8.43;;
19111;SDS011;9688;51.906;8.376;2023-02-15T09:37:12;17.93;;;8.90;;
19111;SDS011;9688;51.906;8.376;2023-02-15T09:39:58;17.20;;;9.67;;
19111;SDS011;9688;51.906;8.376;2023-02-15T09:42:53;17.83;;;8.73;;
19111;SDS011;9688;51.906;8.376;2023-02-15T09:49:09;21.63;;;10.73;;
19111;SDS011;9688;51.906;8.376;2023-02-15T09:52:05;14.73;;;8.43;;
19111;SDS011;9688;51.906;8.376;2023-02-15T09:55:09;13.93;;;8.70;;
19111;SDS011;9688;51.906;8.376;2023-02-15T09:58:05;29.17;;;12.63;;
19111;SDS011;9688;51.906;8.376;2023-02-15T10:00:58;18.30;;;9.33;;
19111;SDS011;9688;51.906;8.376;2023-02-15T10:03:55;14.70;;;9.07;;
19111;SDS011;9688;51.906;8.376;2023-02-15T10:07:00;17.40;;;8.70;;
19111;SDS011;9688;51.906;8.376;2023-02-15T10:10:05;24.17;;;11.80;;
19111;SDS011;9688;51.906;8.376;2023-02-15T10:13:08;17.03;;;9.17;;
19111;SDS011;9688;51.906;8.376;2023-02-15T10:16:07;17.10;;;9.50;;
19111;SDS011;9688;51.906;8.376;2023-02-15T10:19:03;19.33;;;10.10;;
19111;SDS011;9688;51.906;8.376;2023-02-15T10:21:59;18.23;;;9.23;;
19111;SDS011;9688;51.906;8.376;2023-02-15T10:24:56;15.73;;;8.53;;
19111;SDS011;9688;51.906;8.376;2023-02-15T10:28:03;45.47;;;18.00;;
19111;SDS011;9688;51.906;8.376;2023-02-15T10:30:51;26.47;;;11.10;;
19111;SDS011;9688;51.906;8.376;2023-02-15T10:33:42;23.77;;;9.70;;
19111;SDS011;9688;51.906;8.376;2023-02-15T10:36:32;17.80;;;9.37;;
19111;SDS011;9688;51.906;8.376;2023-02-15T10:39:32;17.60;;;9.70;;
19111;SDS011;9688;51.906;8.376;2023-02-15T10:42:34;31.30;;;14.47;;
19111;SDS011;9688;51.906;8.376;2023-02-15T10:45:35;19.53;;;9.90;;
19111;SDS011;9688;51.906;8.376;2023-02-15T10:51:49;16.00;;;9.03;;
19111;SDS011;9688;51.906;8.376;2023-02-15T10:54:48;20.67;;;10.70;;
19111;SDS011;9688;51.906;8.376;2023-02-15T10:57:50;16.43;;;9.33;;
19111;SDS011;9688;51.906;8.376;2023-02-15T11:00:41;19.40;;;10.17;;
19111;SDS011;9688;51.906;8.376;2023-02-15T11:03:34;22.70;;;10.93;;
19111;SDS011;9688;51.906;8.376;2023-02-15T11:06:29;35.57;;;14.43;;
19111;SDS011;9688;51.906;8.376;2023-02-15T11:09:18;20.47;;;11.13;;
19111;SDS011;9688;51.906;8.376;2023-02-15T11:12:10;31.23;;;14.60;;
19111;SDS011;9688;51.906;8.376;2023-02-15T11:15:03;17.00;;;9.33;;
19111;SDS011;9688;51.906;8.376;2023-02-15T11:18:05;31.37;;;14.57;;
19111;SDS011;9688;51.906;8.376;2023-02-15T11:21:02;26.13;;;12.07;;
19111;SDS011;9688;51.906;8.376;2023-02-15T11:23:53;35.10;;;16.23;;
19111;SDS011;9688;51.906;8.376;2023-02-15T11:26:41;18.40;;;10.07;;
19111;SDS011;9688;51.906;8.376;2023-02-15T11:29:31;19.83;;;10.70;;
19111;SDS011;9688;51.906;8.376;2023-02-15T11:32:22;20.60;;;10.53;;
19111;SDS011;9688;51.906;8.376;2023-02-15T11:35:18;28.13;;;12.03;;
19111;SDS011;9688;51.906;8.376;2023-02-15T11:38:10;37.93;;;17.67;;
19111;SDS011;9688;51.906;8.376;2023-02-15T11:41:02;47.97;;;19.93;;
19111;SDS011;9688;51.906;8.376;2023-02-15T11:43:53;22.00;;;10.90;;
19111;SDS011;9688;51.906;8.376;2023-02-15T11:46:45;28.13;;;13.87;;
19111;SDS011;9688;51.906;8.376;2023-02-15T11:49:34;30.83;;;14.07;;
19111;SDS011;9688;51.906;8.376;2023-02-15T11:52:22;26.83;;;13.20;;
19111;SDS011;9688;51.906;8.376;2023-02-15T11:55:11;27.23;;;13.17;;
19111;SDS011;9688;51.906;8.376;2023-02-15T11:58:01;26.47;;;12.53;;
19111;SDS011;9688;51.906;8.376;2023-02-15T12:00:55;21.70;;;10.87;;
19111;SDS011;9688;51.906;8.376;2023-02-15T12:03:44;24.50;;;12.23;;
19111;SDS011;9688;51.906;8.376;2023-02-15T12:06:34;27.10;;;12.13;;
19111;SDS011;9688;51.906;8.376;2023-02-15T12:09:25;25.10;;;11.20;;
19111;SDS011;9688;51.906;8.376;2023-02-15T12:12:20;24.13;;;11.80;;
19111;SDS011;9688;51.906;8.376;2023-02-15T12:15:08;25.73;;;11.93;;
19111;SDS011;9688;51.906;8.376;2023-02-15T12:17:56;28.20;;;12.13;;
19111;SDS011;9688;51.906;8.376;2023-02-15T12:20:43;50.77;;;22.60;;
19111;SDS011;9688;51.906;8.376;2023-02-15T12:23:31;29.00;;;13.00;;
19111;SDS011;9688;51.906;8.376;2023-02-15T12:26:23;28.43;;;13.10;;
19111;SDS011;9688;51.906;8.376;2023-02-15T12:29:12;28.80;;;13.47;;
19111;SDS011;9688;51.906;8.376;2023-02-15T12:32:03;29.57;;;13.20;;
19111;SDS011;9688;51.906;8.376;2023-02-15T12:34:49;36.13;;;15.60;;
19111;SDS011;9688;51.906;8.376;2023-02-15T12:37:36;28.00;;;14.33;;
19111;SDS011;9688;51.906;8.376;2023-02-15T12:40:24;27.13;;;13.73;;
19111;SDS011;9688;51.906;8.376;2023-02-15T12:43:23;26.37;;;13.40;;
19111;SDS011;9688;51.906;8.376;2023-02-15T12:46:19;30.77;;;13.13;;
19111;SDS011;9688;51.906;8.376;2023-02-15T12:49:07;29.27;;;14.33;;
19111;SDS011;9688;51.906;8.376;2023-02-15T12:52:04;30.30;;;14.03;;
19111;SDS011;9688;51.906;8.376;2023-02-15T12:54:52;32.57;;;13.70;;
19111;SDS011;9688;51.906;8.376;2023-02-15T12:57:39;32.00;;;14.13;;
19111;SDS011;9688;51.906;8.376;2023-02-15T13:00:28;36.07;;;14.10;;
19111;SDS011;9688;51.906;8.376;2023-02-15T13:03:17;43.97;;;17.70;;
19111;SDS011;9688;51.906;8.376;2023-02-15T13:06:08;27.73;;;13.97;;
19111;SDS011;9688;51.906;8.376;2023-02-15T13:08:58;30.40;;;14.80;;
19111;SDS011;9688;51.906;8.376;2023-02-15T13:11:58;34.47;;;15.33;;
19111;SDS011;9688;51.906;8.376;2023-02-15T13:14:58;29.20;;;13.87;;
19111;SDS011;9688;51.906;8.376;2023-02-15T13:17:46;30.00;;;14.90;;
19111;SDS011;9688;51.906;8.376;2023-02-15T13:20:32;35.17;;;16.83;;
19111;SDS011;9688;51.906;8.376;2023-02-15T13:23:26;35.50;;;16.57;;
19111;SDS011;9688;51.906;8.376;2023-02-15T13:26:14;38.37;;;17.13;;
19111;SDS011;9688;51.906;8.376;2023-02-15T13:29:05;31.53;;;15.13;;
19111;SDS011;9688;51.906;8.376;2023-02-15T13:32:11;32.43;;;15.00;;
19111;SDS011;9688;51.906;8.376;2023-02-15T13:35:10;46.53;;;19.97;;
19111;SDS011;9688;51.906;8.376;2023-02-15T13:41:09;29.10;;;14.17;;
19111;SDS011;9688;51.906;8.376;2023-02-15T13:44:01;27.63;;;14.10;;
19111;SDS011;9688;51.906;8.376;2023-02-15T13:46:58;30.27;;;14.93;;
19111;SDS011;9688;51.906;8.376;2023-02-15T13:53:18;28.80;;;14.07;;
19111;SDS011;9688;51.906;8.376;2023-02-15T13:56:17;27.70;;;13.73;;
19111;SDS011;9688;51.906;8.376;2023-02-15T13:59:17;35.23;;;13.73;;
19111;SDS011;9688;51.906;8.376;2023-02-15T14:02:28;34.23;;;14.37;;
19111;SDS011;9688;51.906;8.376;2023-02-15T14:08:48;30.23;;;13.17;;
19111;SDS011;9688;51.906;8.376;2023-02-15T14:11:47;28.93;;;12.37;;
19111;SDS011;9688;51.906;8.376;2023-02-15T14:14:47;29.43;;;14.33;;
19111;SDS011;9688;51.906;8.376;2023-02-15T14:17:59;29.03;;;13.27;;
19111;SDS011;9688;51.906;8.376;2023-02-15T14:21:16;31.87;;;12.67;;
19111;SDS011;9688;51.906;8.376;2023-02-15T14:24:11;29.87;;;13.63;;
19111;SDS011;9688;51.906;8.376;2023-02-15T14:27:10;26.80;;;13.43;;
19111;SDS011;9688;51.906;8.376;2023-02-15T14:30:12;28.70;;;12.07;;
19111;SDS011;9688;51.906;8.376;2023-02-15T14:33:04;29.33;;;13.20;;
19111;SDS011;9688;51.906;8.376;2023-02-15T14:35:53;27.67;;;12.17;;
19111;SDS011;9688;51.906;8.376;2023-02-15T14:42:20;22.80;;;11.63;;
19111;SDS011;9688;51.906;8.376;2023-02-15T14:45:16;26.60;;;12.47;;
19111;SDS011;9688;51.906;8.376;2023-02-15T14:48:10;20.43;;;10.90;;
19111;SDS011;9688;51.906;8.376;2023-02-15T14:51:04;24.57;;;11.20;;
19111;SDS011;9688;51.906;8.376;2023-02-15T14:53:50;24.33;;;11.73;;
19111;SDS011;9688;51.906;8.376;2023-02-15T14:56:35;23.63;;;10.50;;
19111;SDS011;9688;51.906;8.376;2023-02-15T14:59:23;24.40;;;11.20;;
19111;SDS011;9688;51.906;8.376;2023-02-15T15:02:12;28.87;;;12.83;;
19111;SDS011;9688;51.906;8.376;2023-02-15T15:05:06;21.83;;;11.03;;
19111;SDS011;9688;51.906;8.376;2023-02-15T15:07:55;20.43;;;11.00;;
19111;SDS011;9688;51.906;8.376;2023-02-15T15:10:44;27.17;;;12.03;;
19111;SDS011;9688;51.906;8.376;2023-02-15T15:13:35;24.70;;;11.00;;
19111;SDS011;9688;51.906;8.376;2023-02-15T15:16:34;24.97;;;12.20;;
19111;SDS011;9688;51.906;8.376;2023-02-15T15:22:44;20.53;;;11.10;;
19111;SDS011;9688;51.906;8.376;2023-02-15T15:25:40;23.63;;;10.63;;
19111;SDS011;9688;51.906;8.376;2023-02-15T15:31:47;22.47;;;10.60;;
19111;SDS011;9688;51.906;8.376;2023-02-15T15:34:45;18.90;;;10.80;;
19111;SDS011;9688;51.906;8.376;2023-02-15T15:38:00;25.40;;;10.47;;
19111;SDS011;9688;51.906;8.376;2023-02-15T15:41:17;25.30;;;11.57;;
19111;SDS011;9688;51.906;8.376;2023-02-15T15:44:17;22.03;;;10.83;;
19111;SDS011;9688;51.906;8.376;2023-02-15T15:47:43;24.17;;;11.10;;
19111;SDS011;9688;51.906;8.376;2023-02-15T15:50:40;23.70;;;11.50;;
19111;SDS011;9688;51.906;8.376;2023-02-15T15:53:28;22.23;;;10.67;;
19111;SDS011;9688;51.906;8.376;2023-02-15T15:56:17;30.50;;;11.17;;
19111;SDS011;9688;51.906;8.376;2023-02-15T15:59:06;25.80;;;11.17;;
19111;SDS011;9688;51.906;8.376;2023-02-15T16:02:03;22.73;;;11.47;;
19111;SDS011;9688;51.906;8.376;2023-02-15T16:04:49;23.83;;;11.73;;
19111;SDS011;9688;51.906;8.376;2023-02-15T16:07:35;26.47;;;12.57;;
19111;SDS011;9688;51.906;8.376;2023-02-15T16:10:28;25.17;;;12.33;;
19111;SDS011;9688;51.906;8.376;2023-02-15T16:13:16;26.10;;;12.03;;
19111;SDS011;9688;51.906;8.376;2023-02-15T16:16:02;27.17;;;13.20;;
19111;SDS011;9688;51.906;8.376;2023-02-15T16:18:49;26.93;;;12.50;;
19111;SDS011;9688;51.906;8.376;2023-02-15T16:21:36;24.07;;;11.93;;
19111;SDS011;9688;51.906;8.376;2023-02-15T16:24:25;22.47;;;12.57;;
19111;SDS011;9688;51.906;8.376;2023-02-15T16:27:31;22.40;;;11.27;;
19111;SDS011;9688;51.906;8.376;2023-02-15T16:30:24;24.37;;;11.93;;
19111;SDS011;9688;51.906;8.376;2023-02-15T16:33:12;26.13;;;12.77;;
19111;SDS011;9688;51.906;8.376;2023-02-15T16:36:00;30.20;;;13.83;;
19111;SDS011;9688;51.906;8.376;2023-02-15T16:39:08;27.77;;;11.83;;
19111;SDS011;9688;51.906;8.376;2023-02-15T16:42:01;24.63;;;11.60;;
19111;SDS011;9688;51.906;8.376;2023-02-15T16:44:51;36.97;;;13.67;;
19111;SDS011;9688;51.906;8.376;2023-02-15T16:47:45;28.73;;;12.83;;
19111;SDS011;9688;51.906;8.376;2023-02-15T16:50:34;32.17;;;12.60;;
19111;SDS011;9688;51.906;8.376;2023-02-15T16:53:23;29.93;;;12.87;;
19111;SDS011;9688;51.906;8.376;2023-02-15T16:56:10;26.97;;;12.60;;
19111;SDS011;9688;51.906;8.376;2023-02-15T16:58:58;32.17;;;12.63;;
19111;SDS011;9688;51.906;8.376;2023-02-15T17:01:47;23.77;;;12.17;;
19111;SDS011;9688;51.906;8.376;2023-02-15T17:04:33;24.10;;;11.73;;
19111;SDS011;9688;51.906;8.376;2023-02-15T17:07:22;28.20;;;13.63;;
19111;SDS011;9688;51.906;8.376;2023-02-15T17:13:16;28.37;;;13.20;;
19111;SDS011;9688;51.906;8.376;2023-02-15T17:19:20;25.13;;;11.60;;
19111;SDS011;9688;51.906;8.376;2023-02-15T17:22:14;24.37;;;10.80;;
19111;SDS011;9688;51.906;8.376;2023-02-15T17:25:14;24.93;;;11.43;;
19111;SDS011;9688;51.906;8.376;2023-02-15T17:28:15;17.73;;;10.10;;
19111;SDS011;9688;51.906;8.376;2023-02-15T17:31:06;23.27;;;11.23;;
19111;SDS011;9688;51.906;8.376;2023-02-15T17:33:52;24.37;;;11.13;;
19111;SDS011;9688;51.906;8.376;2023-02-15T17:36:56;22.67;;;9.90;;
19111;SDS011;9688;51.906;8.376;2023-02-15T17:39:44;23.73;;;10.83;;